Time;durP1;ratioP1;P1;durP2;ratioP2;P2;SDS_P1;SDS_P2;PMS_P1;PMS_P2;Temp;Humidity;BMP_temperature;BMP_pressure;BME280_temperature;BME280_humidity;BME280_pressure;Samples;Min_cycle;Max_cycle;Signal;HPM_P1;HPM_P2
2023/07/09 00:01:39;;;;;;;14.40;8.30;;;;;;;18.68;88.25;99572.94;4928455;28;20430;-94
2023/07/09 00:04:05;;;;;;;9.10;5.60;;;;;;;18.60;89.38;99567.47;4928292;29;20035;-94
2023/07/09 00:06:30;;;;;;;11.13;5.55;;;;;;;18.60;89.22;99564.75;4928987;29;20027;-95
2023/07/09 00:08:56;;;;;;;9.00;5.78;;;;;;;18.49;89.61;99562.31;4912810;29;20086;-94
2023/07/09 00:11:21;;;;;;;13.70;6.68;;;;;;;18.47;89.67;99558.28;4926360;29;20027;-94
2023/07/09 00:13:47;;;;;;;9.45;6.45;;;;;;;18.53;89.45;99565.19;4928778;29;20090;-93
2023/07/09 00:16:24;;;;;;;11.68;6.50;;;;;;;18.51;89.66;99578.34;4927619;29;20031;-94
2023/07/09 00:18:49;;;;;;;8.27;5.82;;;;;;;18.46;89.38;99578.50;4912277;29;20035;-94
2023/07/09 00:21:20;;;;;;;14.18;6.07;;;;;;;18.44;89.53;99573.34;4927532;29;20054;-93
2023/07/09 00:23:45;;;;;;;8.80;6.25;;;;;;;18.45;89.77;99574.97;4912455;29;20038;-94
2023/07/09 00:26:13;;;;;;;9.18;6.72;;;;;;;18.39;90.12;99570.78;4912249;29;20031;-94
2023/07/09 00:28:39;;;;;;;10.80;6.22;;;;;;;18.41;90.04;99571.28;4928083;29;20038;-94
2023/07/09 00:31:05;;;;;;;12.00;6.50;;;;;;;18.44;90.52;99569.84;4912186;29;20102;-94
2023/07/09 00:33:31;;;;;;;9.77;6.15;;;;;;;18.43;89.93;99568.22;4928398;29;20031;-94
2023/07/09 00:35:57;;;;;;;9.77;6.85;;;;;;;18.43;90.53;99585.41;4927841;29;20038;-94
2023/07/09 00:38:23;;;;;;;12.27;7.45;;;;;;;18.43;90.24;99579.13;4926269;29;20039;-93
2023/07/09 00:40:59;;;;;;;10.45;7.05;;;;;;;18.48;90.23;99595.34;4928227;29;20035;-95
2023/07/09 00:43:24;;;;;;;13.15;7.10;;;;;;;18.38;90.54;99594.50;4929505;29;20398;-95
2023/07/09 00:46:15;;;;;;;9.50;6.20;;;;;;;18.45;89.28;99585.06;4912220;29;20082;-94
2023/07/09 00:48:41;;;;;;;12.43;6.78;;;;;;;18.58;88.96;99586.88;4929675;29;20058;-94
2023/07/09 00:51:13;;;;;;;14.27;6.63;;;;;;;18.58;89.70;99595.06;4928108;29;20034;-94
2023/07/09 00:53:45;;;;;;;10.13;7.30;;;;;;;18.51;88.92;99583.78;4911435;29;20485;-94
2023/07/09 00:56:14;;;;;;;13.15;7.35;;;;;;;18.39;89.57;99598.06;4928937;29;20505;-94
2023/07/09 00:58:39;;;;;;;14.48;8.25;;;;;;;18.41;89.90;99592.25;4912180;29;20030;-95
2023/07/09 01:01:11;;;;;;;19.25;9.15;;;;;;;18.47;89.96;99600.00;4911206;29;20044;-94
2023/07/09 01:04:03;;;;;;;11.88;8.48;;;;;;;18.49;89.79;99610.56;4912142;28;20031;-95
2023/07/09 01:06:34;;;;;;;19.65;7.68;;;;;;;18.36;89.39;99593.22;4939920;29;20421;-93
2023/07/09 01:09:01;;;;;;;13.70;7.57;;;;;;;18.44;88.52;99594.38;4912893;29;20512;-93
2023/07/09 01:11:27;;;;;;;11.77;7.10;;;;;;;18.45;88.19;99604.97;4910782;29;20035;-94
2023/07/09 01:13:57;;;;;;;13.77;8.48;;;;;;;18.44;87.69;99594.38;4911673;29;20031;-95
2023/07/09 01:16:25;;;;;;;10.63;7.72;;;;;;;18.47;88.37;99621.00;4911040;29;20058;-94
2023/07/09 01:18:51;;;;;;;11.95;7.30;;;;;;;18.38;88.22;99607.34;4911179;29;20027;-94
2023/07/09 01:21:16;;;;;;;10.20;6.85;;;;;;;18.43;87.85;99609.13;4911096;29;20031;-93
2023/07/09 01:23:43;;;;;;;7.88;5.30;;;;;;;18.51;86.78;99605.63;4925791;29;20015;-94
2023/07/09 01:26:11;;;;;;;10.82;6.95;;;;;;;18.35;88.57;99616.16;4910064;29;20110;-92
2023/07/09 01:28:37;;;;;;;13.60;7.50;;;;;;;18.15;89.40;99620.22;4910824;29;20042;-93
2023/07/09 01:31:04;;;;;;;12.40;7.65;;;;;;;18.21;88.99;99616.25;4910247;29;20027;-93
2023/07/09 01:33:29;;;;;;;10.90;6.93;;;;;;;18.13;88.57;99608.81;4910884;29;20034;-93
2023/07/09 01:36:00;;;;;;;12.35;7.82;;;;;;;18.10;88.97;99617.63;4925246;29;20482;-92
2023/07/09 01:38:30;;;;;;;14.77;8.02;;;;;;;18.09;89.18;99632.38;4911942;29;20027;-92
2023/07/09 01:40:56;;;;;;;10.70;7.38;;;;;;;18.11;87.84;99619.22;4926191;29;20031;-94
2023/07/09 01:43:22;;;;;;;15.02;8.40;;;;;;;18.14;87.98;99635.78;4910264;29;20035;-93
2023/07/09 01:45:50;;;;;;;17.75;7.80;;;;;;;18.02;88.62;99627.38;4926564;29;20512;-93
2023/07/09 01:48:16;;;;;;;16.38;8.43;;;;;;;17.91;88.96;99631.47;4911554;29;20063;-92
2023/07/09 01:50:43;;;;;;;11.13;7.72;;;;;;;17.91;89.23;99635.00;4909600;29;20033;-94
2023/07/09 01:53:10;;;;;;;16.60;8.70;;;;;;;17.89;89.64;99634.50;4910998;29;20039;-93
2023/07/09 01:55:36;;;;;;;18.85;8.02;;;;;;;17.89;89.56;99659.03;4910148;29;20035;-93
2023/07/09 01:58:06;;;;;;;14.35;7.82;;;;;;;17.91;89.17;99653.28;4925723;29;20023;-94
2023/07/09 02:00:32;;;;;;;13.68;8.07;;;;;;;17.80;89.25;99640.97;4910911;29;20091;-93
2023/07/09 02:03:00;;;;;;;14.05;9.00;;;;;;;17.74;90.18;99645.72;4925067;29;20031;-92
2023/07/09 02:05:26;;;;;;;15.77;8.63;;;;;;;17.81;90.11;99650.78;4923578;29;20036;-93
2023/07/09 02:07:51;;;;;;;14.57;9.10;;;;;;;17.81;90.54;99658.94;4907830;29;20023;-94
2023/07/09 02:10:17;;;;;;;13.98;8.70;;;;;;;17.84;90.06;99663.78;4910200;29;20093;-92
2023/07/09 02:12:42;;;;;;;16.27;9.43;;;;;;;17.74;90.41;99654.72;4910025;29;20046;-92
2023/07/09 02:15:08;;;;;;;14.32;8.88;;;;;;;17.74;89.80;99656.63;4925196;28;20023;-93
2023/07/09 02:17:34;;;;;;;15.23;8.95;;;;;;;17.82;90.08;99669.50;4913708;29;20490;-94
2023/07/09 02:19:59;;;;;;;13.55;9.10;;;;;;;17.73;89.73;99655.81;4930351;29;20038;-93
2023/07/09 02:22:25;;;;;;;15.60;9.68;;;;;;;17.64;89.86;99654.16;4929394;29;20031;-94
2023/07/09 02:24:52;;;;;;;16.23;9.07;;;;;;;17.66;89.29;99658.19;4930364;29;20413;-94
2023/07/09 02:27:19;;;;;;;17.00;8.75;;;;;;;17.61;89.25;99661.03;4930020;29;20031;-93
2023/07/09 02:29:45;;;;;;;14.88;8.43;;;;;;;17.65;88.92;99656.56;4915204;29;20066;-94
2023/07/09 02:32:11;;;;;;;19.30;8.02;;;;;;;17.69;88.69;99663.00;4914330;29;20110;-93
2023/07/09 02:34:37;;;;;;;13.77;8.20;;;;;;;17.64;88.97;99660.41;4930038;29;20090;-93
2023/07/09 02:37:03;;;;;;;13.77;8.38;;;;;;;17.62;89.38;99678.16;4929941;29;20030;-93
2023/07/09 02:39:28;;;;;;;13.73;7.45;;;;;;;17.55;89.32;99665.75;4915335;29;20043;-93
2023/07/09 02:41:54;;;;;;;13.35;8.38;;;;;;;17.58;89.19;99675.25;4930042;29;20035;-93
2023/07/09 02:44:19;;;;;;;13.93;8.07;;;;;;;17.75;89.00;99685.47;4930339;29;20034;-95
2023/07/09 02:46:45;;;;;;;13.68;8.98;;;;;;;17.66;88.46;99671.81;4913660;29;20486;-94
2023/07/09 02:49:11;;;;;;;25.52;10.48;;;;;;;17.72;88.29;99673.28;4910020;29;20043;-93
2023/07/09 02:51:37;;;;;;;19.42;8.88;;;;;;;17.85;87.67;99681.75;4909999;29;20031;-93
2023/07/09 02:54:02;;;;;;;16.83;9.13;;;;;;;17.92;87.27;99682.13;4908748;29;20027;-93
2023/07/09 02:56:28;;;;;;;14.10;9.48;;;;;;;17.88;87.61;99676.47;4909513;29;20076;-93
2023/07/09 02:58:53;;;;;;;13.23;8.85;;;;;;;17.73;88.10;99671.38;4910504;29;20062;-93
2023/07/09 03:01:24;;;;;;;22.25;10.93;;;;;;;17.73;87.59;99674.09;4911204;29;20426;-95
2023/07/09 03:03:52;;;;;;;20.33;10.17;;;;;;;17.75;87.75;99680.03;4927385;29;20140;-93
2023/07/09 03:06:19;;;;;;;17.38;8.95;;;;;;;17.71;88.08;99679.03;4925736;29;20031;-92
2023/07/09 03:08:44;;;;;;;14.02;7.97;;;;;;;17.74;87.17;99684.69;4910278;29;20028;-94
2023/07/09 03:11:11;;;;;;;11.93;7.68;;;;;;;17.76;86.51;99690.63;4909684;29;20043;-93
2023/07/09 03:13:36;;;;;;;16.17;9.23;;;;;;;17.79;86.40;99694.66;4909848;29;20487;-92
2023/07/09 03:16:02;;;;;;;20.63;9.38;;;;;;;17.86;85.79;99691.53;4910048;29;20039;-94
2023/07/09 03:18:27;;;;;;;23.95;12.32;;;;;;;17.89;85.57;99680.81;4909403;29;20051;-93
2023/07/09 03:20:53;;;;;;;29.98;12.10;;;;;;;17.84;85.30;99691.03;4908817;29;20035;-92
2023/07/09 03:23:18;;;;;;;29.90;13.18;;;;;;;17.88;84.78;99689.28;4925830;29;20039;-93
2023/07/09 03:25:44;;;;;;;21.02;10.95;;;;;;;17.75;85.73;99690.94;4909539;29;20027;-93
2023/07/09 03:28:10;;;;;;;13.13;6.80;;;;;;;17.60;85.14;99696.72;4910131;29;20118;-93
2023/07/09 03:30:41;;;;;;;13.23;7.25;;;;;;;17.57;85.26;99703.59;4909805;29;20034;-93
2023/07/09 03:33:06;;;;;;;14.57;7.43;;;;;;;17.38;85.79;99688.19;4910239;29;20127;-93
2023/07/09 03:35:32;;;;;;;14.35;7.25;;;;;;;17.33;86.03;99690.25;4925546;29;20035;-96
2023/07/09 03:37:57;;;;;;;15.50;8.02;;;;;;;17.36;86.20;99697.78;4925261;29;20035;-92
2023/07/09 03:40:23;;;;;;;14.90;8.00;;;;;;;17.34;86.89;99698.09;4927446;29;20031;-92
2023/07/09 03:42:48;;;;;;;15.43;9.00;;;;;;;17.36;86.20;99698.59;4912730;29;20042;-92
2023/07/09 03:45:14;;;;;;;19.60;8.23;;;;;;;17.55;84.98;99701.16;4912405;29;20425;-92
2023/07/09 03:47:39;;;;;;;16.20;8.35;;;;;;;17.51;85.34;99697.44;4912860;29;20110;-92
2023/07/09 03:50:08;;;;;;;17.08;9.55;;;;;;;17.62;84.26;99699.94;4928019;29;20042;-93
2023/07/09 03:52:33;;;;;;;19.63;9.90;;;;;;;17.65;85.03;99712.97;4912066;29;20011;-93
2023/07/09 03:55:00;;;;;;;16.83;9.77;;;;;;;17.67;84.72;99694.38;4913554;29;20027;-92
2023/07/09 03:57:26;;;;;;;22.08;11.85;;;;;;;17.69;85.62;99706.56;4912629;29;20118;-94
2023/07/09 03:59:52;;;;;;;32.05;13.52;;;;;;;17.73;85.79;99704.84;4926916;29;20094;-93
2023/07/09 04:02:17;;;;;;;34.30;15.93;;;;;;;17.61;86.34;99701.06;4929293;29;20050;-92
2023/07/09 04:04:43;;;;;;;43.40;17.25;;;;;;;17.64;85.84;99698.53;4912088;29;20409;-93
2023/07/09 04:07:08;;;;;;;37.33;16.52;;;;;;;17.74;85.49;99689.31;4913174;29;20516;-92
2023/07/09 04:09:34;;;;;;;36.78;17.30;;;;;;;17.83;85.47;99692.94;4929271;29;20035;-93
2023/07/09 04:12:01;;;;;;;39.35;18.67;;;;;;;17.97;84.70;99701.88;4927961;29;20055;-93
2023/07/09 04:14:27;;;;;;;37.38;18.52;;;;;;;17.96;84.73;99708.41;4929433;29;20378;-92
2023/07/09 04:16:52;;;;;;;35.05;19.10;;;;;;;17.90;85.14;99700.69;4911671;29;20049;-92
2023/07/09 04:19:18;;;;;;;42.40;18.92;;;;;;;18.00;85.21;99705.09;4912889;29;20100;-93
2023/07/09 04:21:43;;;;;;;36.17;19.63;;;;;;;18.01;85.78;99720.31;4928429;29;20027;-94
2023/07/09 04:24:09;;;;;;;39.42;19.38;;;;;;;18.06;84.51;99704.66;4912211;29;20031;-93
2023/07/09 04:26:35;;;;;;;38.35;19.83;;;;;;;18.20;84.34;99714.66;4927471;29;20469;-94
2023/07/09 04:29:00;;;;;;;45.15;20.98;;;;;;;18.11;84.77;99703.72;4927857;29;20031;-92
2023/07/09 04:31:26;;;;;;;43.17;22.17;;;;;;;18.28;83.87;99713.91;4928293;29;20019;-95
2023/07/09 04:33:52;;;;;;;46.80;22.25;;;;;;;18.18;84.63;99712.28;4928110;29;20018;-93
2023/07/09 04:36:18;;;;;;;47.03;22.60;;;;;;;18.22;83.87;99712.44;4926421;29;20039;-92
2023/07/09 04:38:43;;;;;;;40.63;22.48;;;;;;;18.48;82.33;99718.84;4910987;29;20027;-93
2023/07/09 04:41:09;;;;;;;44.47;20.77;;;;;;;18.57;83.10;99721.63;4927962;29;20019;-92
2023/07/09 04:43:34;;;;;;;38.55;22.13;;;;;;;18.50;82.44;99716.63;4927412;29;20486;-94
2023/07/09 04:45:59;;;;;;;41.92;22.73;;;;;;;18.53;81.72;99723.38;4928163;29;20027;-93
2023/07/09 04:48:25;;;;;;;28.95;18.55;;;;;;;18.61;80.37;99719.09;4928058;29;20032;-92
2023/07/09 04:50:51;;;;;;;33.78;18.05;;;;;;;18.56;80.15;99720.81;4927997;29;20465;-93
2023/07/09 04:53:17;;;;;;;38.65;18.95;;;;;;;18.64;80.55;99721.19;4927554;29;20034;-93
2023/07/09 04:55:42;;;;;;;33.13;20.20;;;;;;;18.62;81.01;99720.72;4911740;29;20426;-93
2023/07/09 04:58:07;;;;;;;49.80;23.30;;;;;;;18.46;81.69;99714.84;4912730;29;20027;-94
2023/07/09 05:00:33;;;;;;;45.22;24.55;;;;;;;18.49;82.14;99725.09;4911415;29;20495;-94
2023/07/09 05:02:58;;;;;;;50.97;27.02;;;;;;;18.49;82.04;99725.09;4927869;29;20027;-92
2023/07/09 05:05:24;;;;;;;44.05;26.15;;;;;;;18.65;81.50;99733.69;4912533;29;20027;-93
2023/07/09 05:07:50;;;;;;;49.33;26.27;;;;;;;18.63;81.63;99722.28;4927099;29;20410;-93
2023/07/09 05:10:16;;;;;;;46.88;28.35;;;;;;;18.68;81.56;99725.69;4926682;29;20015;-93
2023/07/09 05:12:52;;;;;;;51.38;29.48;;;;;;;18.65;80.88;99720.06;4911607;29;20031;-92
2023/07/09 05:15:18;;;;;;;48.78;28.08;;;;;;;18.70;80.44;99728.13;4907953;29;20155;-93
2023/07/09 05:17:44;;;;;;;51.33;26.45;;;;;;;18.68;80.73;99722.19;4908684;29;20028;-93
2023/07/09 05:20:10;;;;;;;49.53;28.50;;;;;;;18.58;81.16;99717.78;4906901;29;20032;-93
2023/07/09 05:22:35;;;;;;;43.78;26.45;;;;;;;18.64;81.41;99724.72;4910988;29;20053;-93
2023/07/09 05:25:01;;;;;;;47.30;26.75;;;;;;;18.61;81.40;99721.81;4926992;29;20034;-93
2023/07/09 05:27:26;;;;;;;55.67;28.80;;;;;;;18.47;81.99;99722.72;4926488;29;20019;-93
2023/07/09 05:29:51;;;;;;;48.08;26.60;;;;;;;18.48;82.77;99728.97;4926364;29;20026;-93
2023/07/09 05:32:18;;;;;;;48.28;26.75;;;;;;;18.53;82.91;99724.19;4926928;29;20043;-94
2023/07/09 05:34:43;;;;;;;38.95;23.25;;;;;;;18.66;81.66;99727.94;4926986;29;20027;-94
2023/07/09 05:37:08;;;;;;;36.60;23.00;;;;;;;18.78;81.98;99730.91;4926249;29;20114;-93
2023/07/09 05:39:34;;;;;;;37.78;21.85;;;;;;;18.76;81.82;99735.84;4926589;29;20031;-94
2023/07/09 05:41:59;;;;;;;47.30;23.17;;;;;;;18.88;81.83;99731.75;4909872;29;20035;-94
2023/07/09 05:44:25;;;;;;;40.15;22.80;;;;;;;18.91;81.52;99740.13;4929874;29;20565;-95
2023/07/09 05:46:50;;;;;;;36.95;20.83;;;;;;;18.95;81.70;99738.38;4912935;29;20391;-95
2023/07/09 05:49:16;;;;;;;35.15;19.65;;;;;;;19.16;80.54;99744.03;4913094;29;20035;-94
2023/07/09 05:51:42;;;;;;;32.88;18.45;;;;;;;19.12;80.59;99734.09;4927441;29;20414;-92
2023/07/09 05:54:07;;;;;;;30.38;18.90;;;;;;;19.26;80.21;99731.22;4916290;29;20648;-94
2023/07/09 05:56:33;;;;;;;34.53;18.38;;;;;;;19.36;79.71;99739.09;4915641;29;20086;-94
2023/07/09 05:58:58;;;;;;;29.80;17.60;;;;;;;19.51;79.71;99738.66;4929951;29;20035;-94
2023/07/09 06:01:24;;;;;;;26.35;16.45;;;;;;;19.54;79.06;99734.50;4930631;29;20039;-94
2023/07/09 06:03:49;;;;;;;24.83;15.88;;;;;;;19.68;79.37;99729.69;4927235;29;20028;-94
2023/07/09 06:06:15;;;;;;;23.50;14.65;;;;;;;19.77;78.10;99744.16;4919139;29;20035;-93
2023/07/09 06:08:41;;;;;;;27.13;14.75;;;;;;;19.85;78.27;99736.31;4915338;29;20038;-95
2023/07/09 06:11:07;;;;;;;22.85;13.10;;;;;;;19.97;77.55;99725.53;4914526;29;20568;-94
2023/07/09 06:13:32;;;;;;;20.02;12.50;;;;;;;20.19;76.17;99733.56;4915648;29;20102;-96
2023/07/09 06:15:58;;;;;;;19.63;12.93;;;;;;;20.41;74.98;99725.47;4915872;29;20038;-92
2023/07/09 06:18:24;;;;;;;17.38;11.43;;;;;;;20.40;74.78;99724.69;4914841;29;20027;-94
2023/07/09 06:20:50;;;;;;;17.05;11.07;;;;;;;20.45;74.08;99719.03;4917944;29;20038;-93
2023/07/09 06:23:16;;;;;;;14.05;9.80;;;;;;;20.55;73.16;99724.16;4930061;29;20035;-93
2023/07/09 06:25:42;;;;;;;14.68;9.60;;;;;;;20.70;73.06;99717.38;4915777;29;20496;-94
2023/07/09 06:28:08;;;;;;;15.77;9.10;;;;;;;20.87;71.82;99716.47;4914068;29;20027;-94
2023/07/09 06:30:33;;;;;;;9.55;5.35;;;;;;;20.94;69.05;99708.56;4913543;29;20035;-94
2023/07/09 06:32:59;;;;;;;8.80;5.40;;;;;;;21.17;69.35;99709.09;4914805;29;20063;-94
2023/07/09 06:35:24;;;;;;;10.20;5.50;;;;;;;21.36;67.33;99707.84;4913584;29;20038;-94
2023/07/09 06:37:50;;;;;;;9.73;5.28;;;;;;;21.52;67.49;99714.38;4922405;29;20035;-96
2023/07/09 06:40:15;;;;;;;7.10;3.58;;;;;;;21.62;66.22;99704.16;4915934;29;20031;-96
2023/07/09 06:42:41;;;;;;;5.25;3.70;;;;;;;21.70;65.65;99692.31;4913946;29;20409;-96
2023/07/09 06:45:07;;;;;;;6.03;3.60;;;;;;;21.92;64.89;99705.66;4915312;29;20039;-96
2023/07/09 06:47:32;;;;;;;5.07;3.40;;;;;;;21.99;61.17;99697.69;4915850;29;20031;-95
2023/07/09 06:49:58;;;;;;;4.90;3.20;;;;;;;22.08;59.99;99699.53;4912613;29;20114;-96
2023/07/09 06:52:23;;;;;;;6.43;3.22;;;;;;;22.10;61.10;99697.28;4913043;29;20031;-95
2023/07/09 06:54:49;;;;;;;4.57;3.22;;;;;;;22.23;60.58;99704.44;4912285;29;20031;-95
2023/07/09 06:57:17;;;;;;;5.55;3.78;;;;;;;22.24;56.79;99702.50;4913796;29;20027;-95
2023/07/09 06:59:43;;;;;;;9.13;3.63;;;;;;;22.27;56.13;99697.13;4918071;29;20015;-96
2023/07/09 07:02:08;;;;;;;7.65;3.50;;;;;;;22.32;56.02;99696.91;4912208;29;20113;-95
2023/07/09 07:04:34;;;;;;;4.20;2.60;;;;;;;22.35;58.37;99693.50;4913754;29;20478;-96
2023/07/09 07:06:59;;;;;;;7.05;2.90;;;;;;;22.35;57.31;99685.28;4914851;29;20031;-96
2023/07/09 07:09:25;;;;;;;3.80;2.88;;;;;;;22.44;56.60;99682.44;4916092;29;20031;-96
2023/07/09 07:11:50;;;;;;;5.15;3.03;;;;;;;22.57;57.06;99696.97;4915792;29;20098;-96
2023/07/09 07:14:16;;;;;;;6.38;3.00;;;;;;;22.77;58.21;99709.81;4914695;29;20042;-96
2023/07/09 07:16:41;;;;;;;3.85;2.72;;;;;;;22.73;57.25;99692.41;4918751;29;20038;-96
2023/07/09 07:19:07;;;;;;;5.28;2.75;;;;;;;22.86;56.50;99697.91;4915467;29;20470;-96
2023/07/09 07:21:32;;;;;;;3.72;3.03;;;;;;;22.86;53.24;99686.91;4914280;29;20038;-96
2023/07/09 07:23:58;;;;;;;6.50;2.60;;;;;;;22.90;53.93;99679.59;4912429;29;20118;-96
2023/07/09 07:26:23;;;;;;;4.88;2.92;;;;;;;22.92;55.03;99693.78;4914107;28;20458;-96
2023/07/09 07:28:52;;;;;;;3.72;2.97;;;;;;;23.00;53.45;99692.88;4916182;29;20027;-96
2023/07/09 07:31:18;;;;;;;6.05;3.10;;;;;;;23.06;54.27;99688.78;4917400;29;20031;-94
2023/07/09 07:33:43;;;;;;;6.43;3.38;;;;;;;23.28;53.17;99697.66;4913546;29;20051;-94
2023/07/09 07:36:09;;;;;;;4.68;3.03;;;;;;;23.37;53.48;99693.66;4916603;29;20031;-93
2023/07/09 07:38:35;;;;;;;4.22;2.97;;;;;;;23.32;53.42;99682.09;4916686;29;20031;-93
2023/07/09 07:41:01;;;;;;;4.10;3.10;;;;;;;23.42;52.42;99678.88;4915877;29;20111;-94
2023/07/09 07:43:26;;;;;;;8.30;3.55;;;;;;;23.55;51.67;99685.13;4915171;29;20027;-94
2023/07/09 07:45:52;;;;;;;5.57;3.42;;;;;;;23.73;50.21;99686.44;4913360;29;20098;-95
2023/07/09 07:48:17;;;;;;;5.75;2.50;;;;;;;23.64;46.28;99688.56;4931283;29;20035;-93
2023/07/09 07:50:43;;;;;;;4.78;2.95;;;;;;;23.80;49.60;99689.44;4913717;29;20082;-93
2023/07/09 07:53:08;;;;;;;3.00;2.33;;;;;;;23.92;47.52;99685.81;4929540;29;20126;-95
2023/07/09 07:55:36;;;;;;;4.45;2.50;;;;;;;23.97;47.08;99688.34;4914897;29;20035;-93
2023/07/09 07:58:03;;;;;;;6.03;2.42;;;;;;;24.07;45.34;99686.22;4911227;29;20067;-94
2023/07/09 08:00:29;;;;;;;6.25;2.20;;;;;;;24.04;43.32;99684.97;4913158;29;20118;-94
2023/07/09 08:02:54;;;;;;;2.53;1.88;;;;;;;24.02;41.50;99681.00;4911895;29;20035;-94
2023/07/09 08:05:20;;;;;;;5.35;2.90;;;;;;;24.09;42.15;99678.41;4914164;29;20031;-95
2023/07/09 08:07:48;;;;;;;3.95;2.28;;;;;;;24.21;43.00;99684.66;4913962;29;20042;-96
2023/07/09 08:10:15;;;;;;;3.30;2.35;;;;;;;24.28;41.89;99675.81;4928497;29;20023;-95
2023/07/09 08:12:41;;;;;;;3.85;2.20;;;;;;;24.31;43.11;99677.03;4914136;29;20019;-95
2023/07/09 08:15:07;;;;;;;7.47;2.35;;;;;;;24.32;44.36;99673.13;4913890;29;20039;-95
2023/07/09 08:17:32;;;;;;;2.67;2.00;;;;;;;24.50;41.90;99676.38;4912528;29;20023;-94
2023/07/09 08:19:58;;;;;;;4.50;2.17;;;;;;;24.32;40.01;99673.13;4915649;29;20035;-95
2023/07/09 08:22:24;;;;;;;5.57;2.13;;;;;;;24.45;41.50;99671.13;4914036;29;20027;-94
2023/07/09 08:24:49;;;;;;;5.20;2.30;;;;;;;24.57;41.61;99663.59;4912699;29;20042;-93
2023/07/09 08:27:15;;;;;;;3.80;2.13;;;;;;;24.72;40.28;99661.97;4913008;29;20030;-94
2023/07/09 08:29:41;;;;;;;3.70;2.08;;;;;;;24.63;40.28;99664.09;4911910;29;20023;-94
2023/07/09 08:32:08;;;;;;;3.53;2.03;;;;;;;24.69;40.49;99662.69;4913844;29;20050;-93
2023/07/09 08:34:38;;;;;;;4.75;2.10;;;;;;;24.76;39.95;99653.81;4913355;29;20110;-93
2023/07/09 08:37:03;;;;;;;3.67;2.33;;;;;;;24.90;40.04;99653.34;4912635;29;20023;-93
2023/07/09 08:39:29;;;;;;;4.72;2.05;;;;;;;24.85;39.44;99662.69;4929352;29;20027;-93
2023/07/09 08:41:57;;;;;;;3.15;2.20;;;;;;;24.95;40.56;99666.84;4913698;29;20046;-94
2023/07/09 08:44:48;;;;;;;3.00;1.98;;;;;;;25.18;39.97;99669.72;4928725;29;20027;-94
2023/07/09 08:47:35;;;;;;;3.33;1.90;;;;;;;25.09;38.91;99653.41;4944249;29;20028;-93
2023/07/09 08:50:22;;;;;;;3.53;2.30;;;;;;;25.13;39.51;99653.47;4912758;29;20035;-93
2023/07/09 08:52:53;;;;;;;3.08;2.10;;;;;;;25.10;40.11;99659.69;4932364;29;20035;-94
2023/07/09 08:55:20;;;;;;;5.97;2.20;;;;;;;25.05;41.65;99662.72;4912760;29;20023;-93
2023/07/09 08:57:54;;;;;;;5.70;2.38;;;;;;;25.11;42.09;99650.25;4913142;29;20031;-93
2023/07/09 09:00:31;;;;;;;3.72;2.35;;;;;;;25.11;41.93;99661.28;4912953;29;20043;-93
2023/07/09 09:03:40;;;;;;;3.50;2.55;;;;;;;25.07;40.94;99665.91;4913789;29;20058;-95
2023/07/09 09:06:13;;;;;;;4.05;2.30;;;;;;;25.22;40.83;99673.41;4835296;29;20037;-94
2023/07/09 09:09:00;;;;;;;4.60;2.58;;;;;;;25.16;40.96;99664.56;4820589;29;20033;-94
2023/07/09 09:11:31;;;;;;;5.93;2.78;;;;;;;25.27;41.43;99667.59;4901489;29;20387;-93
2023/07/09 09:14:01;;;;;;;4.00;2.40;;;;;;;25.16;40.75;99667.31;4915948;29;20031;-94
2023/07/09 09:16:30;;;;;;;7.25;2.28;;;;;;;25.25;41.34;99660.84;4914902;29;20023;-92
2023/07/09 09:19:00;;;;;;;5.00;3.03;;;;;;;25.40;41.63;99671.00;4914118;29;20003;-92
2023/07/09 09:21:36;;;;;;;4.97;2.58;;;;;;;25.52;41.74;99670.09;4929402;29;20038;-93
2023/07/09 09:24:33;;;;;;;3.72;2.40;;;;;;;25.58;41.53;99674.16;4912916;29;20114;-92
2023/07/09 09:26:59;;;;;;;5.68;2.67;;;;;;;25.55;41.18;99669.38;4909789;29;20402;-93
2023/07/09 09:29:25;;;;;;;3.60;2.10;;;;;;;25.67;41.94;99674.75;4912903;29;20007;-93
2023/07/09 09:31:55;;;;;;;3.97;2.47;;;;;;;25.66;42.16;99670.38;4913919;29;20023;-92
2023/07/09 09:34:28;;;;;;;2.95;2.20;;;;;;;25.68;42.70;99670.03;4912515;29;20390;-94
2023/07/09 09:36:55;;;;;;;4.45;2.40;;;;;;;25.78;42.70;99663.94;4912766;29;20026;-94
2023/07/09 09:39:20;;;;;;;6.20;2.55;;;;;;;25.83;42.68;99652.59;4912566;29;20027;-95
2023/07/09 09:41:46;;;;;;;5.82;2.90;;;;;;;25.70;42.24;99660.22;4911745;29;20504;-93
2023/07/09 09:44:19;;;;;;;3.63;2.50;;;;;;;25.75;43.08;99653.59;4911595;29;20027;-93
2023/07/09 09:46:45;;;;;;;4.07;2.50;;;;;;;25.92;42.55;99663.41;4913118;29;20027;-94
2023/07/09 09:49:10;;;;;;;5.97;2.80;;;;;;;26.03;42.35;99655.38;4926486;29;20031;-94
2023/07/09 09:51:44;;;;;;;3.63;2.55;;;;;;;26.12;43.05;99661.44;4924472;29;20007;-94
2023/07/09 09:54:20;;;;;;;3.95;2.47;;;;;;;26.17;41.90;99661.94;4907626;29;20019;-93
2023/07/09 09:56:50;;;;;;;5.43;3.20;;;;;;;26.20;42.83;99658.44;4908597;29;20098;-94
2023/07/09 09:59:23;;;;;;;5.57;2.78;;;;;;;26.28;41.68;99651.09;4907984;29;20057;-95
2023/07/09 10:02:02;;;;;;;4.25;2.65;;;;;;;26.32;41.65;99663.00;4908448;29;20048;-94
2023/07/09 10:04:28;;;;;;;3.50;2.50;;;;;;;26.36;41.47;99655.56;4908275;29;20525;-95
2023/07/09 10:07:00;;;;;;;3.45;2.58;;;;;;;26.51;40.89;99664.09;4908173;29;20032;-93
2023/07/09 10:09:47;;;;;;;3.95;2.40;;;;;;;26.58;41.76;99653.19;4908186;29;20098;-94
2023/07/09 10:12:32;;;;;;;3.50;2.65;;;;;;;26.65;41.58;99658.84;4940737;28;20458;-94
2023/07/09 10:15:19;;;;;;;7.32;3.05;;;;;;;26.67;40.67;99653.75;4939428;29;20156;-94
2023/07/09 10:18:27;;;;;;;4.18;2.45;;;;;;;26.77;41.95;99649.53;4939141;29;20031;-95
2023/07/09 10:21:07;;;;;;;4.80;2.70;;;;;;;26.83;39.85;99653.56;4938782;29;20510;-93
2023/07/09 10:23:34;;;;;;;3.20;2.45;;;;;;;26.91;40.71;99635.16;4907093;29;20031;-94
2023/07/09 10:26:13;;;;;;;5.18;2.50;;;;;;;27.17;39.59;99651.72;4939206;29;20058;-94
2023/07/09 10:29:01;;;;;;;3.30;2.50;;;;;;;27.16;39.43;99641.81;4908398;29;20122;-95
2023/07/09 10:31:36;;;;;;;3.38;2.30;;;;;;;27.32;39.49;99647.19;4923083;29;20094;-94
2023/07/09 10:34:13;;;;;;;4.32;2.40;;;;;;;27.07;38.89;99635.78;4923223;29;20040;-92
2023/07/09 10:36:39;;;;;;;3.58;2.38;;;;;;;27.24;39.66;99637.22;4939376;29;20063;-94
2023/07/09 10:39:13;;;;;;;5.60;2.47;;;;;;;27.16;38.62;99649.31;4943442;29;20035;-93
2023/07/09 10:41:38;;;;;;;3.33;2.65;;;;;;;27.17;39.53;99642.63;4912933;29;20031;-94
2023/07/09 10:44:11;;;;;;;6.78;2.63;;;;;;;27.36;39.38;99634.22;4912533;29;20042;-94
2023/07/09 10:46:38;;;;;;;5.40;2.60;;;;;;;27.31;38.58;99629.03;4928132;29;20031;-94
2023/07/09 10:49:06;;;;;;;3.72;2.33;;;;;;;27.47;37.91;99626.06;4911269;29;20087;-93
2023/07/09 10:51:40;;;;;;;3.90;2.50;;;;;;;27.56;38.86;99626.56;4927938;29;20020;-93
2023/07/09 10:54:37;;;;;;;2.63;1.95;;;;;;;27.68;38.06;99630.25;4910981;29;20036;-94
2023/07/09 10:57:23;;;;;;;5.82;2.75;;;;;;;27.85;37.52;99635.19;4941783;29;20038;-93
2023/07/09 10:59:49;;;;;;;5.47;2.70;;;;;;;27.94;36.87;99626.63;4942945;29;20106;-94
2023/07/09 11:02:24;;;;;;;4.28;2.33;;;;;;;27.98;38.13;99628.25;4914724;29;20031;-94
2023/07/09 11:05:09;;;;;;;3.22;2.30;;;;;;;28.12;36.63;99612.94;4931900;29;20117;-93
2023/07/09 11:07:53;;;;;;;3.92;2.17;;;;;;;28.08;36.15;99621.22;4917364;29;20390;-93
2023/07/09 11:10:32;;;;;;;6.80;2.10;;;;;;;27.96;37.31;99615.97;4915122;29;20038;-94
2023/07/09 11:13:19;;;;;;;2.95;2.35;;;;;;;28.06;36.71;99614.44;4930349;29;20035;-94
2023/07/09 11:15:47;;;;;;;4.75;1.90;;;;;;;27.96;36.64;99613.97;4930545;29;20038;-93
2023/07/09 11:18:26;;;;;;;4.38;3.00;;;;;;;28.09;36.68;99620.03;4913464;29;20078;-93
2023/07/09 11:21:04;;;;;;;3.00;1.90;;;;;;;27.85;35.38;99602.00;4913462;29;20486;-93
2023/07/09 11:23:44;;;;;;;3.20;2.20;;;;;;;27.70;34.17;99616.84;4913704;29;20481;-93
2023/07/09 11:26:15;;;;;;;6.18;2.10;;;;;;;27.73;34.47;99613.31;4914593;29;20031;-93
2023/07/09 11:28:42;;;;;;;4.63;2.13;;;;;;;27.77;32.05;99611.38;4930490;29;20118;-94
2023/07/09 11:31:15;;;;;;;4.00;2.28;;;;;;;27.82;33.07;99600.75;4915272;29;20486;-93
2023/07/09 11:33:48;;;;;;;2.83;1.90;;;;;;;27.89;32.47;99604.81;4915853;29;20049;-93